Skip Navigation LinksHome page > Weather > Current weather Skip Navigation Links

Current Weather

Heathrow, London

For information only: do not use for flight planning or navigation.
Latest weather
Observation time Monday, December 5, 2016 7:50 AM GMT
Local time Monday, December 5, 2016 8:26 AM GMT
Flight conditions Marginal Visual Meteorological Conditions
Winds
Wind direction East-Northeast (60°)
Wind speed 2 mph
Visibility 3.7 mi.
Sky condition
Ceiling unlimited
Temperature 30°F
Dewpoint 30°F
Altimeter 30.24 in.Hg
Derived measurements
Relative humidity 100%
Wind chill 30°F
Density altitude -2240 ft.
Remarks
Corrected report.
Fully automated report.
METAR COR EGLL 050750Z AUTO 06002KT 6000 NCD M01/M01 Q1024 TEMPO 4500 BR

Settings

Location code

InnerDrive.Weather 4.0.6144.1 Release CLR 4.0.30319.34209
Copyright ©2015 Inner Drive Technology. All rights reserved. Portions Copyright ©1986-2015 David Braverman.

Find weather

Site navigation


Skip Navigation Links

Place info

Page info

PayPal - The safer, easier way to pay online!

Return home.

Copyright ©2016 Inner Drive Technology. Purveyors of fine, hand-crafted computer software. Page printed 2016-12-05T08:26:05 UTC.